Time;durP1;ratioP1;P1;durP2;ratioP2;P2;SDS_P1;SDS_P2;PMS_P1;PMS_P2;Temp;Humidity;BMP_temperature;BMP_pressure;BME280_temperature;BME280_humidity;BME280_pressure;Samples;Min_cycle;Max_cycle;Signal;HPM_P1;HPM_P2
2024/01/21 00:00:24;;;;;;;45.92;22.90;;;;;;;-2.05;80.18;100975.66;6189918;23;20020;-79
2024/01/21 00:03:10;;;;;;;40.40;20.27;;;;;;;-1.97;80.30;100988.19;6209983;23;20021;-76
2024/01/21 00:05:55;;;;;;;41.08;21.05;;;;;;;-1.95;80.73;100988.88;6184018;23;20020;-77
2024/01/21 00:08:41;;;;;;;45.72;21.08;;;;;;;-1.93;81.51;100998.28;6204496;23;20024;-77
2024/01/21 00:11:27;;;;;;;37.85;19.20;;;;;;;-2.03;80.47;100993.81;6203657;23;20322;-76
2024/01/21 00:14:12;;;;;;;45.40;18.48;;;;;;;-2.04;79.77;100998.16;6202819;23;20020;-78
2024/01/21 00:16:58;;;;;;;36.47;18.80;;;;;;;-1.95;80.69;101001.91;6181784;23;20422;-77
2024/01/21 00:19:43;;;;;;;33.35;17.15;;;;;;;-2.04;79.78;100995.56;6159580;23;20025;-77
2024/01/21 00:22:29;;;;;;;31.40;15.23;;;;;;;-1.96;79.95;101008.91;6202311;23;20047;-77
2024/01/21 00:25:15;;;;;;;33.08;17.58;;;;;;;-1.95;79.94;101005.34;6181513;23;20025;-78
2024/01/21 00:28:01;;;;;;;39.75;18.05;;;;;;;-1.96;81.35;100995.88;6200808;23;20430;-77
2024/01/21 00:30:46;;;;;;;32.75;17.45;;;;;;;-1.94;80.69;101009.63;6201071;23;20021;-76
2024/01/21 00:33:31;;;;;;;27.10;15.63;;;;;;;-1.97;80.91;101009.03;6180986;23;20021;-76
2024/01/21 00:36:17;;;;;;;30.30;16.58;;;;;;;-1.95;80.71;101005.34;6201882;23;20318;-79
2024/01/21 00:39:02;;;;;;;30.67;16.30;;;;;;;-1.90;80.85;101013.69;6180980;23;20021;-77
2024/01/21 00:41:47;;;;;;;30.63;15.82;;;;;;;-2.13;80.51;100975.34;6180471;23;20020;-77
2024/01/21 00:44:33;;;;;;;31.65;13.77;;;;;;;-2.01;80.27;101000.56;6202989;23;20307;-79
2024/01/21 00:47:20;;;;;;;24.05;13.65;;;;;;;-2.01;79.93;100992.75;6202492;23;20025;-77
2024/01/21 00:50:06;;;;;;;24.80;14.73;;;;;;;-1.91;80.72;101000.78;6202377;23;20024;-78
2024/01/21 00:52:52;;;;;;;23.65;13.13;;;;;;;-1.92;80.22;100991.28;6161526;23;20016;-77
2024/01/21 00:55:37;;;;;;;25.02;13.25;;;;;;;-1.98;79.59;101000.34;6202637;23;20306;-76
2024/01/21 00:58:23;;;;;;;24.70;13.73;;;;;;;-1.99;80.67;100997.88;6202827;23;20020;-76
2024/01/21 01:01:08;;;;;;;29.40;14.38;;;;;;;-2.04;81.43;100989.50;6181920;23;20334;-78
2024/01/21 01:03:54;;;;;;;26.73;14.75;;;;;;;-2.05;81.77;100993.06;6181231;23;20326;-76
2024/01/21 01:06:39;;;;;;;33.58;15.63;;;;;;;-2.24;81.05;100975.25;6204268;23;20020;-77
2024/01/21 01:09:24;;;;;;;28.00;15.90;;;;;;;-2.14;82.01;100994.53;6202422;23;20016;-78
2024/01/21 01:12:10;;;;;;;25.98;13.95;;;;;;;-2.14;81.02;100994.53;6204249;23;20310;-77
2024/01/21 01:14:55;;;;;;;28.20;12.38;;;;;;;-2.21;80.88;100978.47;6203036;23;20021;-78
2024/01/21 01:17:41;;;;;;;24.38;13.30;;;;;;;-2.21;80.89;100978.47;6204154;23;20414;-78
2024/01/21 01:20:27;;;;;;;31.77;15.18;;;;;;;-2.23;80.95;100985.56;6184693;23;20302;-77
2024/01/21 01:23:12;;;;;;;27.35;13.65;;;;;;;-2.27;81.39;100983.28;6186222;23;20021;-77
2024/01/21 01:25:57;;;;;;;32.78;15.57;;;;;;;-2.32;81.67;100986.19;6182841;23;20016;-77
2024/01/21 01:28:43;;;;;;;30.55;14.90;;;;;;;-2.24;81.69;100990.88;6203414;23;20311;-77
2024/01/21 01:31:28;;;;;;;31.92;15.70;;;;;;;-2.28;82.43;100995.47;6159879;23;20025;-78
2024/01/21 01:34:12;;;;;;;37.70;18.02;;;;;;;-2.22;81.95;101004.66;6181589;23;20020;-76
2024/01/21 01:36:58;;;;;;;42.92;17.77;;;;;;;-2.26;82.18;101005.78;6180634;23;20430;-78
2024/01/21 01:39:43;;;;;;;41.83;19.88;;;;;;;-2.26;81.33;101016.19;6202869;23;20021;-79
2024/01/21 01:42:29;;;;;;;32.97;18.33;;;;;;;-2.29;81.29;101001.59;6201625;23;20025;-77
2024/01/21 01:45:14;;;;;;;30.15;15.55;;;;;;;-2.27;82.09;101023.19;6203409;23;20442;-76
2024/01/21 01:48:00;;;;;;;35.40;18.30;;;;;;;-2.29;81.95;101016.41;6203076;23;20410;-80
2024/01/21 01:50:46;;;;;;;31.83;16.80;;;;;;;-2.31;82.52;101013.09;6161074;23;20310;-77
2024/01/21 01:53:33;;;;;;;23.73;12.57;;;;;;;-2.30;82.64;101018.16;6201732;23;20430;-77
2024/01/21 01:56:18;;;;;;;25.27;14.27;;;;;;;-2.28;83.37;101018.09;6181391;23;20314;-78
2024/01/21 01:59:08;;;;;;;32.65;17.00;;;;;;;-2.33;83.46;101014.00;6180184;23;20020;-78
2024/01/21 02:01:55;;;;;;;35.03;17.27;;;;;;;-2.36;83.84;101022.00;6182077;23;20024;-77
2024/01/21 02:04:40;;;;;;;41.80;19.98;;;;;;;-2.28;83.73;101020.69;6201752;23;20020;-78
2024/01/21 02:07:25;;;;;;;41.17;21.35;;;;;;;-2.27;82.71;101007.53;6180374;23;20429;-78
2024/01/21 02:10:11;;;;;;;35.15;16.25;;;;;;;-2.13;83.34;101027.44;6181433;23;20311;-78
2024/01/21 02:12:57;;;;;;;29.45;14.63;;;;;;;-2.19;81.75;101012.25;6180854;23;20016;-77
2024/01/21 02:15:42;;;;;;;31.02;14.75;;;;;;;-2.09;81.63;101018.50;6202560;23;20410;-77
2024/01/21 02:18:27;;;;;;;26.70;15.40;;;;;;;-2.08;81.15;101022.75;6202205;23;20407;-78
2024/01/21 02:21:12;;;;;;;36.05;15.25;;;;;;;-2.02;80.70;101029.34;6201797;23;20021;-77
2024/01/21 02:23:58;;;;;;;25.83;14.13;;;;;;;-2.06;80.28;101030.50;6201836;23;20017;-77
2024/01/21 02:26:43;;;;;;;31.27;14.55;;;;;;;-2.04;80.66;101037.25;6180336;23;20024;-77
2024/01/21 02:29:29;;;;;;;28.80;13.85;;;;;;;-2.13;79.98;101023.09;6202146;23;20306;-79
2024/01/21 02:32:14;;;;;;;24.73;13.52;;;;;;;-2.12;80.89;101024.75;6159651;23;20021;-77
2024/01/21 02:34:59;;;;;;;29.30;15.13;;;;;;;-2.18;81.30;101024.34;6180399;23;20415;-77
2024/01/21 02:37:45;;;;;;;31.45;15.20;;;;;;;-2.10;81.31;101032.44;6204974;23;20025;-78
2024/01/21 02:40:31;;;;;;;34.03;15.85;;;;;;;-2.12;80.73;101032.56;6186462;23;20021;-77
2024/01/21 02:43:16;;;;;;;29.38;15.95;;;;;;;-2.21;80.45;101017.56;6198837;23;20020;-76
2024/01/21 02:46:01;;;;;;;101.60;38.20;;;;;;;-2.14;79.51;101041.41;6206560;23;20020;-79
2024/01/21 02:48:46;;;;;;;86.45;35.40;;;;;;;-2.12;80.72;101048.19;6183517;23;20318;-78
2024/01/21 02:51:32;;;;;;;277.25;122.15;;;;;;;-2.21;80.32;101038.38;6204728;23;20020;-77
2024/01/21 02:54:17;;;;;;;37.45;19.63;;;;;;;-2.16;80.82;101048.50;6204071;23;20314;-78
2024/01/21 02:57:02;;;;;;;50.10;22.40;;;;;;;-2.20;80.25;101036.63;6204301;23;20024;-77
2024/01/21 02:59:47;;;;;;;536.17;336.92;;;;;;;-2.18;80.08;101045.16;6203482;23;20043;-77
2024/01/21 03:02:33;;;;;;;27.88;16.00;;;;;;;-2.20;80.09;101047.88;6161497;23;20021;-78
2024/01/21 03:05:19;;;;;;;25.25;13.52;;;;;;;-2.33;80.68;101040.03;6182284;23;20016;-77
2024/01/21 03:08:05;;;;;;;38.92;19.33;;;;;;;-2.26;80.94;101048.28;6204245;23;20025;-77
2024/01/21 03:10:50;;;;;;;26.67;13.23;;;;;;;-2.24;81.06;101054.22;6161205;23;20020;-78
2024/01/21 03:13:35;;;;;;;28.45;13.65;;;;;;;-2.28;81.36;101054.53;6183023;23;20317;-77
2024/01/21 03:16:20;;;;;;;25.02;13.63;;;;;;;-2.28;80.46;101051.94;6182212;23;20020;-77
2024/01/21 03:19:06;;;;;;;26.13;13.73;;;;;;;-2.36;79.90;101053.25;6182369;23;20422;-77
2024/01/21 03:21:51;;;;;;;26.17;13.68;;;;;;;-2.34;79.78;101058.38;6183918;23;20020;-77
2024/01/21 03:24:37;;;;;;;30.48;15.88;;;;;;;-2.37;80.94;101046.41;6181939;23;20323;-78
2024/01/21 03:27:22;;;;;;;23.00;13.32;;;;;;;-2.42;81.29;101043.25;6203585;23;20423;-77
2024/01/21 03:30:08;;;;;;;22.25;11.43;;;;;;;-2.47;80.89;101050.56;6203059;23;20021;-77
2024/01/21 03:32:54;;;;;;;35.13;13.35;;;;;;;-2.58;81.55;101032.19;6182177;23;20024;-76
2024/01/21 03:35:39;;;;;;;27.75;14.25;;;;;;;-2.49;81.29;101055.00;6203522;23;20020;-80
2024/01/21 03:38:25;;;;;;;28.90;13.95;;;;;;;-2.48;81.96;101054.06;6204254;23;20426;-76
2024/01/21 03:41:10;;;;;;;31.95;14.63;;;;;;;-2.43;81.55;101056.38;6181239;23;20020;-79
2024/01/21 03:43:56;;;;;;;30.00;14.93;;;;;;;-2.42;82.00;101058.03;6202965;23;20426;-79
2024/01/21 03:46:42;;;;;;;28.95;14.70;;;;;;;-2.42;81.81;101058.03;6203895;23;20024;-80
2024/01/21 03:49:28;;;;;;;29.95;14.80;;;;;;;-2.34;81.26;101064.41;6182443;23;20310;-79
2024/01/21 03:52:12;;;;;;;46.80;25.27;;;;;;;-2.41;81.42;101059.72;6202898;23;20020;-78
2024/01/21 03:54:58;;;;;;;41.53;20.33;;;;;;;-2.51;82.08;101054.28;6182394;23;20422;-79
2024/01/21 03:57:44;;;;;;;30.48;16.30;;;;;;;-2.52;82.05;101057.00;6203186;23;20322;-78
2024/01/21 04:00:29;;;;;;;35.65;17.00;;;;;;;-2.48;81.65;101058.44;6184405;23;20021;-78
2024/01/21 04:03:15;;;;;;;24.80;13.90;;;;;;;-2.51;82.54;101058.66;6207854;23;20413;-78
2024/01/21 04:06:00;;;;;;;29.67;15.90;;;;;;;-2.45;82.64;101066.88;6209597;23;20016;-78
2024/01/21 04:08:45;;;;;;;32.90;15.68;;;;;;;-2.46;82.56;101060.03;6206379;23;20418;-78
2024/01/21 04:11:31;;;;;;;35.30;16.90;;;;;;;-2.49;82.68;101081.03;6204120;23;20021;-78
2024/01/21 04:14:16;;;;;;;27.92;15.30;;;;;;;-2.61;83.36;101064.44;6161619;23;20020;-79
2024/01/21 04:17:02;;;;;;;31.15;16.23;;;;;;;-2.60;83.49;101065.28;6181913;23;20021;-79
2024/01/21 04:19:48;;;;;;;36.95;17.88;;;;;;;-2.60;83.76;101073.94;6160416;23;20021;-78
2024/01/21 04:22:33;;;;;;;36.00;18.13;;;;;;;-2.62;84.30;101078.41;6204622;23;20403;-78
2024/01/21 04:25:19;;;;;;;38.10;19.60;;;;;;;-2.61;83.72;101085.28;6203348;23;20353;-78
2024/01/21 04:28:04;;;;;;;35.20;18.85;;;;;;;-2.56;84.00;101092.81;6203056;23;20423;-78
2024/01/21 04:30:49;;;;;;;41.47;19.75;;;;;;;-2.67;83.38;101075.25;6203262;23;20318;-78
2024/01/21 04:33:35;;;;;;;37.95;19.20;;;;;;;-2.71;83.50;101076.41;6203910;23;20322;-78
2024/01/21 04:36:24;;;;;;;40.13;19.42;;;;;;;-2.76;84.43;101075.03;6202495;23;20024;-78
2024/01/21 04:39:09;;;;;;;40.42;19.75;;;;;;;-2.74;84.03;101083.56;6202373;23;20422;-77
2024/01/21 04:41:54;;;;;;;40.63;20.15;;;;;;;-2.81;83.84;101076.16;6198250;23;20024;-78
2024/01/21 04:44:40;;;;;;;41.85;21.05;;;;;;;-2.86;84.89;101067.81;6181904;23;20020;-78
2024/01/21 04:47:25;;;;;;;42.40;19.63;;;;;;;-2.92;84.59;101068.19;6202360;23;20318;-77
2024/01/21 04:50:10;;;;;;;42.45;19.92;;;;;;;-3.10;85.08;101062.41;6202474;23;20326;-77
2024/01/21 04:52:56;;;;;;;40.33;20.13;;;;;;;-3.14;84.96;101070.47;6202564;23;20021;-77
2024/01/21 04:55:41;;;;;;;40.05;20.05;;;;;;;-3.22;85.08;101077.94;6181132;23;20414;-79
2024/01/21 04:58:27;;;;;;;39.10;21.63;;;;;;;-3.30;86.09;101070.59;6202779;23;20025;-78
2024/01/21 05:01:13;;;;;;;37.58;17.80;;;;;;;-3.28;85.65;101081.75;6180738;23;20020;-78
2024/01/21 05:03:58;;;;;;;38.78;19.90;;;;;;;-3.34;86.54;101071.75;6202997;23;20020;-78
2024/01/21 05:06:42;;;;;;;37.08;19.35;;;;;;;-3.36;85.89;101082.22;6161533;23;20398;-77
2024/01/21 05:09:28;;;;;;;36.45;19.65;;;;;;;-3.42;85.69;101087.78;6202096;23;20021;-77
2024/01/21 05:12:14;;;;;;;38.83;20.80;;;;;;;-3.57;86.61;101088.75;6202908;23;20020;-78
2024/01/21 05:14:59;;;;;;;39.70;22.08;;;;;;;-3.70;87.16;101087.81;6180966;23;20017;-77
2024/01/21 05:17:45;;;;;;;34.42;20.25;;;;;;;-3.79;86.93;101084.00;6180976;23;20371;-77
2024/01/21 05:20:30;;;;;;;36.17;20.70;;;;;;;-3.90;87.81;101100.22;6203272;23;20021;-77
2024/01/21 05:23:15;;;;;;;39.92;20.73;;;;;;;-3.99;87.18;101098.16;6203771;23;20024;-78
2024/01/21 05:26:00;;;;;;;43.72;21.15;;;;;;;-4.06;87.87;101099.47;6206465;23;20310;-78
2024/01/21 05:28:46;;;;;;;40.63;21.30;;;;;;;-4.10;88.88;101105.78;6211682;23;20024;-78
2024/01/21 05:31:33;;;;;;;46.35;23.90;;;;;;;-4.26;89.13;101092.81;6187408;23;20020;-77
2024/01/21 05:34:18;;;;;;;49.63;25.20;;;;;;;-4.22;88.57;101113.34;6184108;23;20310;-78
2024/01/21 05:37:04;;;;;;;53.33;27.00;;;;;;;-4.16;89.07;101112.16;6181165;23;20020;-77
2024/01/21 05:39:49;;;;;;;46.88;26.45;;;;;;;-4.21;89.31;101104.63;6202538;23;20406;-78
2024/01/21 05:42:34;;;;;;;57.75;31.98;;;;;;;-4.18;89.61;101114.81;6202089;23;20024;-78
2024/01/21 05:45:20;;;;;;;51.10;28.15;;;;;;;-4.37;89.04;101093.44;6181908;23;20379;-78
2024/01/21 05:48:06;;;;;;;53.38;28.02;;;;;;;-4.31;89.86;101124.25;6160954;23;20024;-79
2024/01/21 05:50:52;;;;;;;52.40;26.60;;;;;;;-4.28;90.04;101123.25;6180930;23;20021;-78
2024/01/21 05:53:39;;;;;;;45.72;27.02;;;;;;;-4.33;89.92;101133.03;6182430;23;20024;-78
2024/01/21 05:56:24;;;;;;;57.28;29.38;;;;;;;-4.28;89.61;101142.25;6182324;23;20020;-76
2024/01/21 05:59:09;;;;;;;60.15;29.67;;;;;;;-4.47;90.02;101126.88;6203152;23;20020;-78
2024/01/21 06:01:55;;;;;;;69.22;35.42;;;;;;;-4.34;89.87;101150.38;6182453;23;20021;-76
2024/01/21 06:04:41;;;;;;;90.38;41.70;;;;;;;-4.34;89.86;101155.56;6182472;23;20025;-77
2024/01/21 06:07:27;;;;;;;72.53;35.88;;;;;;;-4.38;89.79;101158.44;6203418;23;20426;-77
2024/01/21 06:10:12;;;;;;;59.83;32.75;;;;;;;-4.31;90.69;101165.78;6205238;23;20303;-78
2024/01/21 06:12:57;;;;;;;59.88;31.13;;;;;;;-4.31;89.76;101164.94;6180634;23;20410;-78
2024/01/21 06:15:42;;;;;;;67.18;34.00;;;;;;;-4.37;89.95;101144.53;6183653;23;20017;-79
2024/01/21 06:18:28;;;;;;;80.18;41.30;;;;;;;-4.33;91.08;101165.03;6203657;23;20021;-79
2024/01/21 06:21:16;;;;;;;84.40;41.00;;;;;;;-4.44;90.40;101172.59;6182912;23;20020;-78
2024/01/21 06:24:01;;;;;;;94.55;42.50;;;;;;;-4.45;90.73;101184.75;6183858;23;20017;-78
2024/01/21 06:26:46;;;;;;;79.53;40.13;;;;;;;-4.49;90.40;101183.22;6182317;23;20322;-78
2024/01/21 06:29:32;;;;;;;73.00;36.47;;;;;;;-4.49;90.69;101185.81;6206076;23;20028;-77
2024/01/21 06:32:18;;;;;;;66.32;37.53;;;;;;;-4.50;90.37;101191.94;6182255;23;20414;-79
2024/01/21 06:35:03;;;;;;;78.53;40.97;;;;;;;-4.47;90.39;101188.34;6203795;23;20020;-78
2024/01/21 06:37:49;;;;;;;77.50;40.70;;;;;;;-4.47;90.20;101196.13;6203908;23;20306;-78
2024/01/21 06:40:34;;;;;;;93.13;45.40;;;;;;;-4.44;90.13;101195.94;6182278;23;20422;-79
2024/01/21 06:43:20;;;;;;;101.95;47.90;;;;;;;-4.51;90.17;101185.06;6204286;23;20322;-79
2024/01/21 06:46:05;;;;;;;123.28;60.00;;;;;;;-4.38;90.02;101207.75;6185601;23;20017;-78
2024/01/21 06:48:50;;;;;;;117.28;53.67;;;;;;;-4.32;91.35;101210.84;6215106;23;20024;-79
2024/01/21 06:51:43;;;;;;;169.07;76.68;;;;;;;-4.28;90.79;101214.94;6191794;23;20322;-78
2024/01/21 06:54:28;;;;;;;116.85;57.78;;;;;;;-4.22;90.49;101205.97;6189668;23;20024;-78
2024/01/21 06:57:13;;;;;;;110.63;53.58;;;;;;;-4.09;90.26;101214.75;6182952;23;20303;-79
2024/01/21 06:59:58;;;;;;;97.50;48.17;;;;;;;-3.98;89.63;101214.13;6202771;23;20021;-77
2024/01/21 07:02:44;;;;;;;116.93;56.33;;;;;;;-4.08;89.87;101208.63;6182374;23;20020;-77
2024/01/21 07:05:30;;;;;;;173.45;78.97;;;;;;;-4.02;89.63;101217.81;6182840;23;20024;-78
2024/01/21 07:08:15;;;;;;;114.75;52.72;;;;;;;-4.08;88.35;101213.81;6202936;23;20024;-80
2024/01/21 07:11:05;;;;;;;97.65;45.40;;;;;;;-3.32;87.35;101228.47;6202709;23;20414;-78
2024/01/21 07:13:51;;;;;;;84.22;44.30;;;;;;;-2.40;85.20;101228.03;6203635;23;20021;-79
2024/01/21 07:16:36;;;;;;;100.95;44.90;;;;;;;-1.74;81.11;101226.38;6203338;23;20024;-79
2024/01/21 07:19:22;;;;;;;115.28;51.08;;;;;;;-1.08;77.07;101224.56;6203687;23;20418;-79
2024/01/21 07:22:08;;;;;;;130.25;49.53;;;;;;;-0.74;74.49;101217.81;6181187;23;20020;-79
2024/01/21 07:24:53;;;;;;;81.47;36.35;;;;;;;-1.18;75.40;101224.34;6203185;23;20020;-78
2024/01/21 07:27:38;;;;;;;68.07;34.47;;;;;;;-0.81;76.28;101224.44;6182213;23;20021;-78
2024/01/21 07:30:24;;;;;;;52.53;27.50;;;;;;;-1.49;76.45;101247.28;6203148;23;20025;-79
2024/01/21 07:33:10;;;;;;;68.78;31.10;;;;;;;-1.39;76.96;101234.47;6162008;23;20059;-77
2024/01/21 07:35:57;;;;;;;82.25;35.83;;;;;;;-1.50;77.67;101229.97;6202867;23;20020;-77
2024/01/21 07:38:43;;;;;;;59.28;30.08;;;;;;;-1.50;77.44;101223.94;6202700;23;20318;-78
2024/01/21 07:41:28;;;;;;;38.75;21.38;;;;;;;-1.64;78.39;101243.91;6180686;23;20021;-79
2024/01/21 07:44:13;;;;;;;41.33;19.55;;;;;;;-2.10;78.76;101230.44;6161155;23;20016;-77
2024/01/21 07:46:59;;;;;;;26.02;12.63;;;;;;;-2.29;78.82;101222.16;6204256;23;20025;-78
2024/01/21 07:49:44;;;;;;;27.00;13.55;;;;;;;-2.50;80.92;101232.16;6181652;23;20426;-77
2024/01/21 07:52:29;;;;;;;30.65;17.50;;;;;;;-2.21;79.10;101222.50;6200582;23;20020;-79
2024/01/21 07:55:14;;;;;;;34.13;17.70;;;;;;;-2.26;79.13;101230.59;6203712;23;20319;-78
2024/01/21 07:58:01;;;;;;;39.35;18.80;;;;;;;-1.93;78.65;101242.41;6160542;23;20017;-78
2024/01/21 08:00:47;;;;;;;38.63;18.67;;;;;;;-2.09;79.25;101239.94;6203192;23;20028;-79
2024/01/21 08:03:32;;;;;;;28.27;13.13;;;;;;;-1.98;78.14;101245.28;6203010;23;20021;-79
2024/01/21 08:06:18;;;;;;;20.52;10.48;;;;;;;-2.15;77.66;101227.31;6205554;23;20020;-79
2024/01/21 08:09:03;;;;;;;39.65;20.58;;;;;;;-1.92;76.82;101254.47;6184954;23;20430;-78
2024/01/21 08:11:49;;;;;;;37.25;18.23;;;;;;;-1.95;77.24;101236.44;6185141;23;20096;-78
2024/01/21 08:14:34;;;;;;;47.17;18.67;;;;;;;-1.74;77.09;101260.28;6182177;23;20020;-79
2024/01/21 08:17:20;;;;;;;49.20;24.92;;;;;;;-1.74;76.48;101252.47;6202172;23;20020;-77
2024/01/21 08:20:06;;;;;;;36.72;17.40;;;;;;;-1.45;75.41;101255.75;6202810;23;20020;-79
2024/01/21 08:22:52;;;;;;;29.13;15.82;;;;;;;-1.58;75.17;101250.50;6181756;23;20024;-78
2024/01/21 08:25:37;;;;;;;8.13;6.38;;;;;;;-1.48;74.96;101263.75;6179844;23;20024;-78
2024/01/21 08:28:23;;;;;;;10.40;8.05;;;;;;;-1.56;75.43;101260.84;6202392;23;20445;-78
2024/01/21 08:31:09;;;;;;;29.05;13.63;;;;;;;-1.38;75.04;101270.03;6203108;23;20075;-78
2024/01/21 08:33:54;;;;;;;30.05;15.98;;;;;;;-1.27;74.55;101261.50;6201151;23;20016;-78
2024/01/21 08:36:39;;;;;;;45.80;20.63;;;;;;;-1.00;72.89;101275.28;6201567;23;20403;-79
2024/01/21 08:39:24;;;;;;;61.25;25.10;;;;;;;-0.86;73.40;101261.28;6202668;23;20322;-77
2024/01/21 08:42:10;;;;;;;36.22;18.65;;;;;;;-1.18;73.36;101247.84;6195895;23;20438;-77
2024/01/21 08:44:54;;;;;;;21.02;12.02;;;;;;;-1.00;72.34;101264.84;6201221;23;20424;-79
2024/01/21 08:47:39;;;;;;;30.42;14.68;;;;;;;-0.90;71.65;101253.78;6201469;23;20024;-76
2024/01/21 08:50:25;;;;;;;41.40;19.35;;;;;;;-0.88;73.33;101257.94;6201498;23;20025;-74
2024/01/21 08:53:10;;;;;;;13.98;6.18;;;;;;;-1.11;71.87;101254.28;6180566;23;20025;-79
2024/01/21 08:55:57;;;;;;;32.78;15.48;;;;;;;-0.68;72.32;101259.19;6181031;23;20032;-79
2024/01/21 08:58:42;;;;;;;29.40;15.45;;;;;;;-0.49;70.56;101254.31;6201121;23;20024;-78
2024/01/21 09:01:28;;;;;;;27.33;12.98;;;;;;;-0.53;69.26;101247.66;6180631;23;20025;-78
2024/01/21 09:04:15;;;;;;;21.13;10.07;;;;;;;-0.79;68.74;101241.63;6201325;23;20020;-79
2024/01/21 09:07:00;;;;;;;29.25;13.57;;;;;;;-0.53;70.47;101254.66;6180238;23;20016;-78
2024/01/21 09:09:46;;;;;;;9.85;6.47;;;;;;;-0.86;68.38;101257.84;6201603;23;20024;-77
2024/01/21 09:12:32;;;;;;;25.27;13.35;;;;;;;-0.61;68.78;101252.56;6159685;23;20043;-77
2024/01/21 09:15:21;;;;;;;17.65;10.80;;;;;;;-0.44;67.99;101253.97;6202016;23;20318;-78
2024/01/21 09:18:07;;;;;;;36.60;14.43;;;;;;;-0.52;69.30;101243.25;6202229;23;20020;-77
2024/01/21 09:20:52;;;;;;;29.85;14.30;;;;;;;-0.26;68.09;101233.56;6201610;23;20020;-80
2024/01/21 09:23:37;;;;;;;22.73;12.55;;;;;;;-0.08;66.72;101223.56;6180641;23;20020;-78
2024/01/21 09:26:22;;;;;;;22.40;12.27;;;;;;;0.20;65.99;101240.66;6202637;23;20021;-77
2024/01/21 09:29:09;;;;;;;17.90;8.20;;;;;;;-0.15;64.60;101238.03;6202168;23;20334;-77
2024/01/21 09:31:55;;;;;;;20.63;9.95;;;;;;;-0.04;64.32;101233.66;6203149;23;20028;-78
2024/01/21 09:34:40;;;;;;;19.65;10.82;;;;;;;-0.09;64.80;101237.56;6160026;23;20444;-77
2024/01/21 09:37:26;;;;;;;19.20;9.52;;;;;;;0.04;63.92;101234.91;6202944;23;20024;-79
2024/01/21 09:40:11;;;;;;;17.42;9.38;;;;;;;-0.11;65.28;101236.84;6202171;23;20032;-78
2024/01/21 09:42:57;;;;;;;20.45;11.00;;;;;;;0.14;66.03;101223.63;6171756;23;20048;-77
2024/01/21 09:45:42;;;;;;;19.63;10.80;;;;;;;-0.23;66.39;101228.09;6202614;23;20441;-77
2024/01/21 09:48:28;;;;;;;29.55;14.50;;;;;;;0.20;66.34;101230.22;6198942;23;20020;-78
2024/01/21 09:51:14;;;;;;;11.18;5.60;;;;;;;0.01;64.96;101214.22;6199261;23;20453;-77
2024/01/21 09:54:00;;;;;;;37.17;17.42;;;;;;;0.17;64.73;101212.94;6180094;23;20433;-78
2024/01/21 09:56:46;;;;;;;25.40;13.63;;;;;;;0.21;65.49;101216.16;6201247;23;20310;-78
2024/01/21 09:59:33;;;;;;;28.33;12.18;;;;;;;0.27;64.14;101218.34;6201101;23;20043;-78
2024/01/21 10:02:18;;;;;;;20.33;10.68;;;;;;;0.11;64.36;101223.03;6200472;23;20322;-78
2024/01/21 10:05:04;;;;;;;26.58;11.05;;;;;;;0.09;65.99;101210.06;6201129;23;20027;-79
2024/01/21 10:07:50;;;;;;;14.95;8.55;;;;;;;-0.15;65.52;101219.72;6201356;23;20028;-77
2024/01/21 10:10:35;;;;;;;21.25;11.48;;;;;;;-0.08;64.96;101216.53;6201125;23;20449;-76
2024/01/21 10:13:21;;;;;;;8.85;5.70;;;;;;;-0.07;65.52;101212.13;6180178;23;20020;-77
2024/01/21 10:16:07;;;;;;;19.35;10.88;;;;;;;-0.08;65.75;101216.53;6179832;23;20044;-77
2024/01/21 10:18:53;;;;;;;19.02;6.28;;;;;;;0.06;65.86;101212.91;6201087;23;20021;-79
2024/01/21 10:21:38;;;;;;;22.40;11.50;;;;;;;-0.10;64.84;101201.91;6203161;23;20032;-77
2024/01/21 10:24:24;;;;;;;24.42;12.65;;;;;;;0.59;67.38;101212.47;6201337;23;20426;-78
2024/01/21 10:27:12;;;;;;;22.13;12.27;;;;;;;0.61;64.66;101210.56;6203339;23;20319;-77
2024/01/21 10:29:58;;;;;;;17.98;11.68;;;;;;;0.55;64.07;101192.72;6202074;23;20035;-77
2024/01/21 10:32:43;;;;;;;12.80;7.03;;;;;;;0.08;63.56;101199.72;6202036;23;20023;-78
2024/01/21 10:35:29;;;;;;;21.98;11.73;;;;;;;0.41;63.46;101207.69;6203325;23;20047;-80
2024/01/21 10:38:14;;;;;;;19.50;11.70;;;;;;;0.64;63.30;101202.50;6200763;23;20043;-77
2024/01/21 10:41:06;;;;;;;29.00;13.38;;;;;;;0.63;64.46;101193.81;6200395;23;20414;-79
2024/01/21 10:43:53;;;;;;;19.38;10.68;;;;;;;0.82;63.47;101195.84;6200967;23;20047;-78
2024/01/21 10:46:41;;;;;;;9.25;6.00;;;;;;;0.60;62.80;101193.22;6180938;23;20047;-77
2024/01/21 10:49:26;;;;;;;18.60;10.57;;;;;;;0.48;62.39;101196.75;6203690;23;20032;-76
2024/01/21 10:52:14;;;;;;;17.83;9.30;;;;;;;0.61;62.02;101187.84;6160355;23;20444;-77
2024/01/21 10:55:00;;;;;;;7.05;4.82;;;;;;;0.62;63.98;101201.75;6204683;23;20028;-76
2024/01/21 10:57:50;;;;;;;18.65;8.20;;;;;;;0.66;61.79;101195.38;6202363;23;20024;-77
2024/01/21 11:00:36;;;;;;;15.32;6.93;;;;;;;0.54;62.86;101189.28;6202741;23;20433;-75
2024/01/21 11:03:31;;;;;;;4.53;4.03;;;;;;;0.62;63.08;101199.16;6203553;23;20027;-80
2024/01/21 11:06:16;;;;;;;15.45;8.23;;;;;;;0.65;62.51;101201.53;6202698;23;20057;-79
2024/01/21 11:09:03;;;;;;;8.80;5.25;;;;;;;0.57;62.33;101190.81;6161895;23;20051;-79
2024/01/21 11:11:50;;;;;;;6.15;3.97;;;;;;;0.46;61.29;101199.47;6203363;23;20035;-77
2024/01/21 11:14:36;;;;;;;16.25;8.30;;;;;;;0.62;60.55;101196.53;6202778;23;20032;-77
2024/01/21 11:17:23;;;;;;;15.82;7.43;;;;;;;0.62;60.09;101189.50;6204714;23;20043;-78
2024/01/21 11:20:26;;;;;;;6.65;4.30;;;;;;;0.67;60.19;101191.78;6181980;23;20023;-80
2024/01/21 11:23:22;;;;;;;11.98;5.97;;;;;;;0.84;60.99;101190.47;6182185;23;20031;-78
2024/01/21 11:26:20;;;;;;;8.15;5.05;;;;;;;0.81;58.91;101193.34;6162564;23;20346;-79
2024/01/21 11:29:28;;;;;;;7.75;3.92;;;;;;;0.74;58.43;101190.34;6204352;23;20024;-81
2024/01/21 11:32:13;;;;;;;15.82;3.15;;;;;;;0.71;57.59;101193.22;6182722;23;20047;-79
2024/01/21 11:35:15;;;;;;;10.20;4.97;;;;;;;0.83;57.73;101192.28;6181429;23;20031;-79
2024/01/21 11:38:06;;;;;;;13.77;6.00;;;;;;;0.79;57.77;101167.28;6202991;23;20322;-80
2024/01/21 11:41:07;;;;;;;9.32;4.35;;;;;;;0.86;57.93;101189.41;6162464;23;20043;-79
2024/01/21 11:43:52;;;;;;;4.80;3.15;;;;;;;0.91;57.93;101178.59;6185462;23;20517;-79
2024/01/21 11:46:39;;;;;;;11.57;5.72;;;;;;;1.10;57.68;101172.75;6202647;23;20299;-79
2024/01/21 11:49:25;;;;;;;6.53;3.78;;;;;;;1.30;57.05;101177.25;6201707;23;20311;-78
2024/01/21 11:52:11;;;;;;;9.15;4.70;;;;;;;1.12;55.85;101171.66;6201880;23;20047;-78
2024/01/21 11:54:57;;;;;;;13.18;6.68;;;;;;;1.22;56.80;101155.22;6203472;23;20024;-78
2024/01/21 11:57:43;;;;;;;9.48;4.95;;;;;;;1.26;54.92;101162.72;6180388;23;20040;-76
2024/01/21 12:00:28;;;;;;;7.05;2.95;;;;;;;1.12;56.56;101161.19;6181583;23;20342;-77
2024/01/21 12:03:19;;;;;;;3.55;2.10;;;;;;;0.92;55.41;101154.06;6183096;23;20031;-78
2024/01/21 12:06:05;;;;;;;9.07;3.03;;;;;;;0.99;55.63;101162.28;6203316;23;20077;-77
2024/01/21 12:08:50;;;;;;;11.27;5.15;;;;;;;1.06;55.08;101158.22;6201682;23;20123;-78
2024/01/21 12:11:36;;;;;;;7.32;4.10;;;;;;;1.19;56.11;101156.28;6202347;23;20319;-78
2024/01/21 12:14:22;;;;;;;5.75;3.78;;;;;;;1.13;56.61;101151.56;6181099;23;20433;-78
2024/01/21 12:17:07;;;;;;;3.80;2.70;;;;;;;1.02;57.03;101149.78;6184756;23;20322;-78
2024/01/21 12:19:52;;;;;;;16.25;7.45;;;;;;;1.20;57.40;101157.97;6205824;23;20035;-78
2024/01/21 12:22:39;;;;;;;10.70;5.18;;;;;;;1.30;56.77;101156.28;6182457;23;20445;-77
2024/01/21 12:25:25;;;;;;;14.13;5.40;;;;;;;1.50;55.07;101159.09;6204624;23;20028;-76
2024/01/21 12:28:12;;;;;;;11.75;6.82;;;;;;;1.43;55.57;101150.88;6184676;23;20028;-78
2024/01/21 12:30:58;;;;;;;18.27;10.10;;;;;;;1.72;56.54;101147.69;6184271;23;20449;-78
2024/01/21 12:33:43;;;;;;;9.45;4.82;;;;;;;1.63;55.27;101154.53;6184379;23;20311;-76
2024/01/21 12:36:33;;;;;;;12.40;5.22;;;;;;;1.46;54.79;101145.41;6204786;23;20047;-77